Time;durP1;ratioP1;P1;durP2;ratioP2;P2;SDS_P1;SDS_P2;PMS_P1;PMS_P2;Temp;Humidity;BMP_temperature;BMP_pressure;BME280_temperature;BME280_humidity;BME280_pressure;Samples;Min_cycle;Max_cycle;Signal;HPM_P1;HPM_P2
2022/01/17 00:00:30;;;;;;;52.40;23.98;;;;;;;3.02;82.48;101456.59;4999176;28;20033;-64
2022/01/17 00:02:59;;;;;;;47.30;23.13;;;;;;;3.03;82.44;101465.13;4982680;28;20050;-64
2022/01/17 00:05:25;;;;;;;48.58;23.92;;;;;;;3.04;82.13;101466.91;4999013;28;20069;-63
2022/01/17 00:07:50;;;;;;;47.90;22.55;;;;;;;3.03;82.45;101472.81;5016532;28;20191;-63
2022/01/17 00:10:16;;;;;;;48.55;23.98;;;;;;;3.03;82.53;101472.81;4982662;28;20113;-64
2022/01/17 00:12:45;;;;;;;46.05;23.27;;;;;;;3.05;82.46;101473.81;5016517;28;20042;-63
2022/01/17 00:15:43;;;;;;;52.55;25.08;;;;;;;3.05;82.01;101484.06;5016231;28;20037;-63
2022/01/17 00:20:40;;;;;;;44.88;23.65;;;;;;;3.03;82.20;101473.72;5016266;28;20500;-62
2022/01/17 00:23:06;;;;;;;55.33;24.38;;;;;;;3.05;82.13;101481.50;4982470;28;20057;-64
2022/01/17 00:25:31;;;;;;;49.20;24.52;;;;;;;3.05;82.34;101484.94;5016104;28;20038;-62
2022/01/17 00:27:56;;;;;;;52.55;25.13;;;;;;;3.05;82.44;101481.50;4998215;28;20069;-63
2022/01/17 00:30:22;;;;;;;53.33;25.38;;;;;;;3.04;82.38;101483.16;5015849;28;20073;-62
2022/01/17 00:32:47;;;;;;;51.97;25.58;;;;;;;3.06;82.50;101475.59;5016001;28;20037;-62
2022/01/17 00:35:13;;;;;;;47.10;23.00;;;;;;;3.05;82.41;101468.69;5015952;28;20042;-63
2022/01/17 00:37:38;;;;;;;53.55;23.65;;;;;;;3.06;82.40;101475.59;4998267;28;20073;-62
2022/01/17 00:40:05;;;;;;;50.53;24.52;;;;;;;3.07;82.33;101471.34;5015910;28;20034;-63
2022/01/17 00:42:30;;;;;;;54.97;25.60;;;;;;;3.05;82.83;101474.69;4981396;28;20038;-63
2022/01/17 00:44:56;;;;;;;47.70;24.23;;;;;;;3.05;82.38;101474.69;5015758;28;20382;-64
2022/01/17 00:47:21;;;;;;;51.97;24.83;;;;;;;3.07;82.46;101482.50;5015606;28;20074;-63
2022/01/17 00:49:46;;;;;;;52.63;24.67;;;;;;;3.07;82.20;101482.50;4998136;28;20034;-63
2022/01/17 00:52:12;;;;;;;53.67;24.33;;;;;;;3.07;82.58;101494.41;4997788;28;20034;-63
2022/01/17 00:54:37;;;;;;;48.58;25.13;;;;;;;3.07;82.23;101497.88;5015581;28;20106;-64
2022/01/17 00:57:03;;;;;;;54.92;24.83;;;;;;;3.08;82.33;101502.22;5015530;28;20449;-63
2022/01/17 00:59:30;;;;;;;49.00;25.85;;;;;;;3.09;82.76;101497.97;4998239;28;20033;-63
2022/01/17 01:01:55;;;;;;;44.33;22.70;;;;;;;3.08;82.90;101506.44;4981453;28;20089;-63
2022/01/17 01:04:21;;;;;;;54.65;25.63;;;;;;;3.07;82.64;101503.00;5015435;28;20033;-63
2022/01/17 01:06:47;;;;;;;52.03;24.17;;;;;;;3.08;82.82;101502.22;5015460;28;20038;-63
2022/01/17 01:09:13;;;;;;;48.60;24.38;;;;;;;3.10;82.69;101507.44;4997713;28;20034;-63
2022/01/17 01:11:38;;;;;;;52.75;26.48;;;;;;;3.07;82.64;101509.78;5015228;28;20042;-63
2022/01/17 01:14:04;;;;;;;54.38;26.23;;;;;;;3.08;82.62;101514.13;4998096;28;20034;-62
2022/01/17 01:16:33;;;;;;;47.20;24.75;;;;;;;3.08;81.84;101512.47;4997667;28;20069;-63
2022/01/17 01:29:27;;;;;;;54.15;23.95;;;;;;;3.09;82.48;101519.38;5015180;28;20143;-63
2022/01/17 01:31:58;;;;;;;46.13;23.13;;;;;;;3.10;82.46;101517.69;4981368;28;20042;-63
2022/01/17 01:34:33;;;;;;;51.85;24.15;;;;;;;3.10;82.12;101512.56;4981301;28;20453;-62
2022/01/17 01:36:58;;;;;;;51.50;23.35;;;;;;;3.10;82.39;101515.13;4997153;28;20042;-61
2022/01/17 01:39:24;;;;;;;49.60;24.23;;;;;;;3.09;82.98;101513.34;4997154;28;20405;-62
2022/01/17 01:41:52;;;;;;;47.47;24.48;;;;;;;3.10;82.58;101499.75;4997197;28;20072;-62
2022/01/17 01:44:20;;;;;;;47.70;23.58;;;;;;;3.09;82.52;101500.53;5014535;28;20037;-62
2022/01/17 01:46:48;;;;;;;49.33;23.60;;;;;;;3.09;82.44;101509.13;5014618;28;20130;-63
2022/01/17 01:49:15;;;;;;;51.28;25.48;;;;;;;3.10;82.22;101510.00;4980633;28;20058;-62
2022/01/17 01:51:42;;;;;;;48.30;24.80;;;;;;;3.09;82.97;101510.78;4980515;28;20033;-62
2022/01/17 01:54:08;;;;;;;51.15;25.48;;;;;;;3.10;82.65;101522.81;4980117;28;20117;-62
2022/01/17 01:56:44;;;;;;;54.17;26.73;;;;;;;3.09;82.46;101527.06;4996785;28;20463;-62
2022/01/17 01:59:10;;;;;;;45.28;23.98;;;;;;;3.11;82.32;101530.63;4980962;28;20026;-63
2022/01/17 02:01:36;;;;;;;49.65;25.90;;;;;;;3.11;82.76;101538.31;4980425;28;20045;-62
2022/01/17 02:04:02;;;;;;;47.67;24.02;;;;;;;3.11;82.58;101532.28;5013814;28;20033;-63
2022/01/17 02:06:28;;;;;;;47.13;24.65;;;;;;;3.12;82.79;101534.94;4980698;28;20445;-62
2022/01/17 02:08:53;;;;;;;48.85;25.60;;;;;;;3.11;82.28;101525.50;4996639;28;20045;-63
2022/01/17 02:11:19;;;;;;;45.10;23.58;;;;;;;3.11;82.40;101517.81;4996987;28;20441;-63
2022/01/17 02:13:46;;;;;;;46.38;23.17;;;;;;;3.11;82.33;101511.78;4996923;28;20042;-63
2022/01/17 02:16:14;;;;;;;52.35;23.55;;;;;;;3.13;82.74;101507.66;5014165;28;20117;-62
2022/01/17 02:18:44;;;;;;;45.42;24.58;;;;;;;3.12;82.59;101508.44;4996093;28;20045;-63
2022/01/17 02:21:19;;;;;;;45.13;23.00;;;;;;;3.13;82.53;101512.78;4980211;28;20033;-63
2022/01/17 02:23:51;;;;;;;49.30;24.52;;;;;;;3.11;82.31;101512.69;5013704;28;20034;-63
2022/01/17 02:26:18;;;;;;;43.88;24.27;;;;;;;3.13;82.98;101515.34;4980261;28;20034;-63
2022/01/17 02:28:49;;;;;;;48.92;25.60;;;;;;;3.12;82.43;101511.88;4979943;28;20038;-63
2022/01/17 02:31:14;;;;;;;47.25;24.00;;;;;;;3.13;82.36;101520.47;4996642;28;20461;-62
2022/01/17 02:33:40;;;;;;;42.53;24.25;;;;;;;3.13;82.27;101520.47;4996675;28;20080;-62
2022/01/17 02:36:06;;;;;;;50.08;25.20;;;;;;;3.14;82.71;101532.50;5013662;28;20378;-63
2022/01/17 02:38:32;;;;;;;43.22;23.23;;;;;;;3.14;82.34;101538.50;5013749;28;20366;-63
2022/01/17 02:40:57;;;;;;;48.97;26.52;;;;;;;3.13;82.89;101541.84;5014084;28;20473;-63
2022/01/17 02:43:24;;;;;;;45.28;23.45;;;;;;;3.13;82.65;101533.28;4996348;28;20037;-63
2022/01/17 02:48:20;;;;;;;43.10;23.35;;;;;;;3.13;82.63;101523.91;5013966;28;20088;-63
2022/01/17 02:50:47;;;;;;;48.72;23.80;;;;;;;3.13;82.82;101508.53;4979802;28;20542;-62
2022/01/17 02:53:13;;;;;;;45.47;23.63;;;;;;;3.14;82.19;101506.88;4980083;28;20061;-63
2022/01/17 02:55:46;;;;;;;47.70;25.13;;;;;;;3.13;82.69;101520.47;4979622;28;20034;-63
2022/01/17 02:58:13;;;;;;;46.60;23.48;;;;;;;3.13;82.43;101523.91;4979754;28;20482;-65
2022/01/17 03:00:39;;;;;;;42.75;24.60;;;;;;;3.13;82.37;101523.91;4979840;28;20026;-63
2022/01/17 03:03:04;;;;;;;46.28;25.10;;;;;;;3.15;82.72;101534.28;5013582;28;20053;-63
2022/01/17 03:05:30;;;;;;;43.22;25.55;;;;;;;3.15;82.90;101544.53;5016605;28;20046;-62
2022/01/17 03:07:55;;;;;;;45.25;23.38;;;;;;;3.16;82.44;101534.38;5000396;28;20044;-63
2022/01/17 03:12:49;;;;;;;45.20;26.48;;;;;;;3.15;82.32;101521.47;5017546;28;20567;-66
2022/01/17 03:15:14;;;;;;;46.63;25.35;;;;;;;3.15;82.53;101537.72;4999748;28;20038;-63
2022/01/17 03:17:40;;;;;;;47.45;25.90;;;;;;;3.16;82.23;101536.94;5000296;28;20045;-63
2022/01/17 03:20:07;;;;;;;44.08;23.85;;;;;;;3.16;82.27;101530.94;4999910;28;20030;-63
2022/01/17 03:22:33;;;;;;;45.45;23.80;;;;;;;3.16;82.29;101529.25;4999755;28;20048;-63
2022/01/17 03:24:58;;;;;;;44.17;24.30;;;;;;;3.16;83.12;101528.38;5017143;28;20030;-63
2022/01/17 03:27:24;;;;;;;52.72;28.63;;;;;;;3.16;82.70;101533.50;5017288;28;20048;-63
2022/01/17 03:29:49;;;;;;;47.72;25.55;;;;;;;3.15;82.49;101535.16;5016952;28;20477;-63
2022/01/17 03:32:15;;;;;;;49.35;26.25;;;;;;;3.17;82.53;101541.28;5017178;28;20532;-63
2022/01/17 03:34:41;;;;;;;45.88;25.48;;;;;;;3.16;82.41;101539.50;5016899;28;20030;-63
2022/01/17 03:37:06;;;;;;;45.63;24.60;;;;;;;3.17;82.34;101541.28;5016722;28;20077;-63
2022/01/17 03:39:32;;;;;;;49.88;24.58;;;;;;;3.16;82.90;101538.63;5017226;28;20060;-63
2022/01/17 03:41:57;;;;;;;44.80;23.73;;;;;;;3.16;82.69;101543.75;5016990;28;20172;-63
2022/01/17 03:44:22;;;;;;;47.45;27.42;;;;;;;3.17;82.72;101553.22;5016603;28;20082;-62
2022/01/17 03:46:48;;;;;;;44.50;25.50;;;;;;;3.17;82.49;101546.41;5016848;28;20033;-63
2022/01/17 03:49:13;;;;;;;51.92;24.30;;;;;;;3.18;82.84;101539.63;5017317;28;20048;-63
2022/01/17 03:51:39;;;;;;;43.15;23.85;;;;;;;3.18;82.54;101539.63;5016663;28;20374;-63
2022/01/17 03:54:05;;;;;;;46.42;24.77;;;;;;;3.18;82.71;101537.06;4982903;28;20026;-63
2022/01/17 03:56:31;;;;;;;46.40;23.83;;;;;;;3.17;82.82;101520.78;4982799;28;20049;-63
2022/01/17 03:58:56;;;;;;;50.80;25.25;;;;;;;3.18;82.98;101516.56;5016610;28;20084;-63
2022/01/17 04:01:21;;;;;;;49.47;27.75;;;;;;;3.18;82.61;101516.56;5016641;28;20068;-63
2022/01/17 04:03:47;;;;;;;52.03;27.02;;;;;;;3.17;82.16;101502.84;5016732;28;20044;-62
2022/01/17 04:06:15;;;;;;;50.60;26.65;;;;;;;3.16;83.05;101493.38;4999544;28;20596;-63
2022/01/17 04:08:41;;;;;;;51.60;27.30;;;;;;;3.16;82.20;101503.63;4982463;28;20026;-63
2022/01/17 04:11:07;;;;;;;56.47;27.52;;;;;;;3.15;82.67;101499.28;5016462;28;20037;-63
2022/01/17 04:13:34;;;;;;;57.55;28.65;;;;;;;3.17;82.28;101501.97;4982281;28;20034;-63
2022/01/17 04:15:59;;;;;;;48.92;24.52;;;;;;;3.17;82.67;101502.84;5015508;28;20095;-62
2022/01/17 04:18:25;;;;;;;53.03;27.88;;;;;;;3.17;82.81;101513.09;4999051;28;20459;-63
2022/01/17 04:20:52;;;;;;;55.10;29.83;;;;;;;3.16;82.97;101513.88;4998657;28;20484;-63
2022/01/17 04:23:18;;;;;;;54.35;25.85;;;;;;;3.19;82.91;101526.03;4982345;28;20030;-62
2022/01/17 04:25:44;;;;;;;52.00;26.58;;;;;;;3.19;83.00;101523.47;4998282;28;20405;-62
2022/01/17 04:28:12;;;;;;;49.60;26.92;;;;;;;3.19;82.53;101510.66;4982150;28;20030;-64
2022/01/17 04:30:38;;;;;;;57.13;28.48;;;;;;;3.18;82.78;101504.63;4982528;28;20042;-62
2022/01/17 04:33:05;;;;;;;53.13;26.85;;;;;;;3.19;82.25;101511.53;4982322;28;20120;-63
2022/01/17 04:35:31;;;;;;;51.40;26.38;;;;;;;3.19;82.79;101519.22;5015777;28;20037;-63
2022/01/17 04:37:59;;;;;;;49.65;25.67;;;;;;;3.21;82.78;101521.88;4982496;28;20044;-62
2022/01/17 04:40:26;;;;;;;50.28;27.00;;;;;;;3.20;82.64;101520.09;5015931;28;20153;-63
2022/01/17 04:42:55;;;;;;;55.85;28.35;;;;;;;3.19;82.69;101524.34;5015580;28;20489;-64
2022/01/17 04:45:21;;;;;;;54.95;27.42;;;;;;;3.20;82.51;101536.38;4982425;28;20077;-62
2022/01/17 04:47:50;;;;;;;60.88;30.17;;;;;;;3.19;82.91;101555.09;4981841;28;20045;-62
2022/01/17 04:50:22;;;;;;;56.05;28.55;;;;;;;3.20;83.01;101554.31;4981915;28;20038;-62
2022/01/17 04:52:49;;;;;;;58.10;29.10;;;;;;;3.19;82.99;101546.53;5015629;28;20381;-63
2022/01/17 04:55:17;;;;;;;57.45;26.85;;;;;;;3.22;82.36;101543.28;4981532;28;20042;-62
2022/01/17 04:57:44;;;;;;;52.50;28.85;;;;;;;3.20;82.63;101536.38;4998199;28;20061;-63
2022/01/17 05:00:12;;;;;;;57.63;28.23;;;;;;;3.20;83.12;101538.94;5015382;28;20065;-63
2022/01/17 05:02:38;;;;;;;54.25;25.90;;;;;;;3.22;82.41;101538.16;4997955;28;20045;-63
2022/01/17 05:05:05;;;;;;;54.53;28.15;;;;;;;3.23;82.66;101539.94;5015426;28;20033;-62
2022/01/17 05:07:34;;;;;;;52.58;27.92;;;;;;;3.23;83.12;101538.25;4997764;28;20038;-63
2022/01/17 05:10:01;;;;;;;64.38;29.20;;;;;;;3.21;82.99;101547.50;4981397;28;20034;-62
2022/01/17 05:12:27;;;;;;;56.28;28.23;;;;;;;3.23;82.61;101545.06;4997620;28;20041;-64
2022/01/17 05:14:53;;;;;;;65.78;31.40;;;;;;;3.23;82.88;101538.25;4997463;28;20040;-62
2022/01/17 05:19:58;;;;;;;60.63;28.08;;;;;;;3.22;82.59;101549.28;5014841;28;20076;-63
2022/01/17 05:22:29;;;;;;;56.40;27.02;;;;;;;3.22;82.64;101546.72;4997255;28;20033;-62
2022/01/17 05:24:55;;;;;;;55.20;27.45;;;;;;;3.24;82.84;101550.28;4982004;28;20034;-63
2022/01/17 05:27:20;;;;;;;56.28;29.02;;;;;;;3.23;82.65;101545.94;5014439;28;20091;-62
2022/01/17 05:29:48;;;;;;;54.83;28.25;;;;;;;3.24;82.65;101552.84;5014979;28;20034;-62
2022/01/17 05:32:14;;;;;;;58.85;29.33;;;;;;;3.25;82.74;101553.75;4997271;28;20045;-63
2022/01/17 05:34:40;;;;;;;61.05;28.23;;;;;;;3.23;82.88;101563.88;4997206;28;20034;-63
2022/01/17 05:37:10;;;;;;;55.78;30.27;;;;;;;3.24;82.93;101563.09;4981025;28;20040;-63
2022/01/17 05:39:37;;;;;;;53.08;27.98;;;;;;;3.23;82.73;101563.88;4981383;28;20038;-63
2022/01/17 05:42:03;;;;;;;53.63;28.35;;;;;;;3.24;82.50;101563.09;4997161;28;20069;-63
2022/01/17 05:44:29;;;;;;;57.30;27.92;;;;;;;3.24;82.44;101570.78;5014712;28;20034;-63
2022/01/17 05:46:55;;;;;;;60.72;28.75;;;;;;;3.24;82.85;101567.34;5014782;28;20096;-63
2022/01/17 05:49:20;;;;;;;57.40;29.25;;;;;;;3.24;82.84;101563.09;5014153;28;20036;-63
2022/01/17 05:51:45;;;;;;;58.85;29.15;;;;;;;3.24;83.01;101565.66;5014486;28;20042;-62
2022/01/17 05:54:11;;;;;;;61.05;28.90;;;;;;;3.24;82.82;101565.66;5014661;28;20060;-63
2022/01/17 05:56:36;;;;;;;69.25;30.25;;;;;;;3.26;82.64;101568.34;5014216;28;20037;-63
2022/01/17 05:59:02;;;;;;;61.58;28.40;;;;;;;3.25;82.67;101572.56;5014349;28;20060;-63
2022/01/17 06:01:27;;;;;;;58.33;30.60;;;;;;;3.26;83.02;101578.59;5014054;28;20121;-63
2022/01/17 06:03:53;;;;;;;59.13;30.23;;;;;;;3.26;82.71;101592.28;4996701;28;20108;-63
2022/01/17 06:06:18;;;;;;;63.25;28.95;;;;;;;3.25;82.71;101611.00;4996884;28;20041;-63
2022/01/17 06:08:44;;;;;;;60.25;29.92;;;;;;;3.26;83.04;101593.97;5013974;28;20045;-63
2022/01/17 06:11:10;;;;;;;56.65;28.50;;;;;;;3.25;82.92;101576.81;4996650;28;20034;-63
2022/01/17 06:13:36;;;;;;;69.20;30.25;;;;;;;3.25;83.30;101574.25;4980425;28;20553;-63
2022/01/17 06:16:02;;;;;;;65.05;31.52;;;;;;;3.26;83.00;101581.16;5014006;28;20121;-63
2022/01/17 06:18:27;;;;;;;62.97;29.15;;;;;;;3.26;82.55;101589.72;4996791;28;20030;-63
2022/01/17 06:20:53;;;;;;;65.40;32.13;;;;;;;3.27;82.85;101582.94;5013893;28;20386;-63
2022/01/17 06:23:18;;;;;;;65.80;31.65;;;;;;;3.27;82.92;101591.50;5013963;28;20508;-63
2022/01/17 06:25:44;;;;;;;66.72;31.88;;;;;;;3.27;83.27;101583.81;4996503;28;20092;-63
2022/01/17 06:28:09;;;;;;;60.00;28.02;;;;;;;3.28;83.27;101584.69;5014560;28;20061;-64
2022/01/17 06:30:35;;;;;;;64.22;30.98;;;;;;;3.27;83.08;101596.63;4980071;28;20077;-63
2022/01/17 06:33:03;;;;;;;54.58;25.83;;;;;;;3.28;82.87;101600.97;5013864;28;20033;-63
2022/01/17 06:35:29;;;;;;;57.15;29.33;;;;;;;3.28;82.99;101615.44;4980052;28;20049;-64
2022/01/17 06:37:54;;;;;;;54.00;26.85;;;;;;;3.28;82.79;101603.53;4979787;28;20581;-64
2022/01/17 06:40:20;;;;;;;55.83;27.58;;;;;;;3.28;83.12;101597.50;4995969;28;20038;-64
2022/01/17 06:42:46;;;;;;;51.75;26.58;;;;;;;3.28;82.54;101597.50;5013818;28;20029;-63
2022/01/17 06:45:13;;;;;;;55.83;27.35;;;;;;;3.28;83.06;101597.50;4979946;28;20046;-63
2022/01/17 06:47:39;;;;;;;54.97;26.77;;;;;;;3.28;83.00;101605.19;4979847;28;20029;-64
2022/01/17 06:50:08;;;;;;;47.25;25.73;;;;;;;3.27;83.45;101604.31;5013733;28;20041;-63
2022/01/17 06:52:35;;;;;;;49.75;27.27;;;;;;;3.29;82.51;101595.06;4996455;28;20363;-63
2022/01/17 06:55:00;;;;;;;60.30;27.65;;;;;;;3.26;82.97;101593.97;4979742;28;20042;-64
2022/01/17 06:57:26;;;;;;;55.97;25.42;;;;;;;3.27;82.84;101612.00;5013687;28;20036;-63
2022/01/17 06:59:52;;;;;;;53.95;26.65;;;;;;;3.28;83.31;101607.75;5013255;28;20556;-63
2022/01/17 07:02:17;;;;;;;53.38;28.50;;;;;;;3.29;83.19;101612.09;5013590;28;20061;-63
2022/01/17 07:04:43;;;;;;;52.38;25.40;;;;;;;3.28;82.67;101610.31;4995930;28;20038;-63
2022/01/17 07:07:08;;;;;;;53.17;26.63;;;;;;;3.27;82.90;101627.38;5013507;28;20512;-64
2022/01/17 07:09:36;;;;;;;48.97;26.00;;;;;;;3.28;83.06;101629.16;5013795;28;20030;-64
2022/01/17 07:12:02;;;;;;;50.83;26.85;;;;;;;3.29;83.11;101648.00;5013537;28;20034;-63
2022/01/17 07:14:28;;;;;;;50.80;25.08;;;;;;;3.29;83.19;101684.78;4979612;28;20543;-64
2022/01/17 07:16:54;;;;;;;47.78;24.38;;;;;;;3.29;83.05;101689.91;5013333;28;20129;-63
2022/01/17 07:19:20;;;;;;;51.22;27.85;;;;;;;3.30;83.46;101684.00;4979870;28;20030;-63
2022/01/17 07:21:45;;;;;;;59.03;27.65;;;;;;;3.29;82.94;101686.44;4995662;28;20409;-64
2022/01/17 07:24:11;;;;;;;50.65;27.40;;;;;;;3.31;83.48;101684.88;5013441;28;20448;-63
2022/01/17 07:26:37;;;;;;;58.78;29.17;;;;;;;3.31;83.26;101679.75;5013413;28;20081;-64
2022/01/17 07:29:08;;;;;;;60.50;28.23;;;;;;;3.32;83.05;101671.28;5013636;28;20544;-63
2022/01/17 07:31:37;;;;;;;56.97;29.33;;;;;;;3.32;83.06;101668.72;5013189;28;20034;-63
2022/01/17 07:34:04;;;;;;;62.20;27.73;;;;;;;3.30;83.18;101637.88;4979677;28;20041;-63
2022/01/17 07:36:30;;;;;;;62.42;28.23;;;;;;;3.31;82.68;101647.34;4979142;28;20061;-63
2022/01/17 07:38:56;;;;;;;62.92;30.33;;;;;;;3.32;83.23;101668.72;5013267;28;20065;-63
2022/01/17 07:41:22;;;;;;;65.15;30.48;;;;;;;3.32;83.09;101676.41;4979749;28;20042;-63
2022/01/17 07:43:49;;;;;;;65.40;29.98;;;;;;;3.33;83.05;101668.84;4996046;28;20038;-62
2022/01/17 07:46:23;;;;;;;66.47;31.85;;;;;;;3.34;82.79;101672.28;5012740;28;20421;-62
2022/01/17 07:49:09;;;;;;;67.90;31.17;;;;;;;3.33;83.03;101679.09;4995755;28;20045;-63
2022/01/17 07:51:36;;;;;;;62.47;31.23;;;;;;;3.33;83.58;101663.72;4997628;28;20129;-62
2022/01/17 07:54:04;;;;;;;66.32;30.73;;;;;;;3.33;82.97;101663.72;4983241;28;20034;-63
2022/01/17 07:56:30;;;;;;;70.45;34.05;;;;;;;3.34;82.83;101662.03;4999338;28;20030;-62
2022/01/17 07:58:56;;;;;;;69.35;29.75;;;;;;;3.34;82.88;101667.16;4982860;28;20037;-62
2022/01/17 08:01:22;;;;;;;72.90;30.98;;;;;;;3.35;83.34;101659.56;4998784;28;20038;-65
2022/01/17 08:03:48;;;;;;;78.95;35.13;;;;;;;3.38;83.31;101663.13;4982608;28;20073;-63
2022/01/17 08:06:13;;;;;;;77.80;33.10;;;;;;;3.35;83.48;101658.69;5016886;28;20033;-63
2022/01/17 08:08:39;;;;;;;72.28;32.25;;;;;;;3.35;83.35;101664.69;4999150;28;20038;-63
2022/01/17 08:11:04;;;;;;;72.20;31.77;;;;;;;3.37;83.42;101661.34;4999163;28;20437;-63
2022/01/17 08:13:30;;;;;;;78.88;32.28;;;;;;;3.35;83.40;101657.00;5016364;28;20405;-63
2022/01/17 08:15:55;;;;;;;82.22;33.35;;;;;;;3.37;83.16;101661.34;5016494;28;20120;-62
2022/01/17 08:18:21;;;;;;;79.20;33.00;;;;;;;3.37;82.76;101661.34;4998576;28;20122;-62
2022/01/17 08:20:47;;;;;;;78.15;35.17;;;;;;;3.37;82.98;101657.13;5016076;28;20041;-63
2022/01/17 08:23:12;;;;;;;77.18;33.15;;;;;;;3.38;82.99;101656.34;4999100;28;20065;-62
2022/01/17 08:25:38;;;;;;;82.72;35.65;;;;;;;3.38;83.68;101652.88;5016350;28;20037;-63
2022/01/17 08:28:04;;;;;;;84.03;36.50;;;;;;;3.38;83.66;101651.22;4982176;28;20038;-63
2022/01/17 08:30:31;;;;;;;80.03;33.88;;;;;;;3.40;83.42;101646.19;5015931;28;20109;-63
2022/01/17 08:32:57;;;;;;;80.32;35.90;;;;;;;3.39;82.98;101653.00;4982179;28;20040;-63
2022/01/17 08:35:23;;;;;;;85.07;35.97;;;;;;;3.40;83.40;101656.44;5015788;28;20037;-62
2022/01/17 08:37:48;;;;;;;85.60;35.38;;;;;;;3.41;83.06;101673.59;5015987;28;20121;-63
2022/01/17 08:40:15;;;;;;;82.22;35.17;;;;;;;3.41;83.04;101689.00;4998637;28;20103;-63
2022/01/17 08:42:41;;;;;;;75.07;33.03;;;;;;;3.40;83.57;101689.75;4982057;28;20489;-63
2022/01/17 08:45:10;;;;;;;80.50;34.17;;;;;;;3.41;83.64;101678.72;5015836;28;20048;-63
2022/01/17 08:47:36;;;;;;;71.70;34.70;;;;;;;3.41;83.43;101686.41;4981906;28;20501;-63
2022/01/17 08:50:04;;;;;;;74.30;31.73;;;;;;;3.42;83.18;101677.94;5015660;28;20056;-63
2022/01/17 08:52:29;;;;;;;83.30;32.70;;;;;;;3.43;83.04;101664.34;4998462;28;20115;-63
2022/01/17 08:54:55;;;;;;;78.47;32.30;;;;;;;3.43;83.79;101666.91;5015784;28;20100;-63
2022/01/17 08:57:20;;;;;;;75.38;31.23;;;;;;;3.43;82.86;101666.91;5015159;28;20559;-64
2022/01/17 08:59:45;;;;;;;75.47;32.88;;;;;;;3.43;83.00;101682.31;4998096;28;20551;-63
2022/01/17 09:02:12;;;;;;;70.18;31.48;;;;;;;3.43;83.01;101698.56;5015149;28;20497;-63
2022/01/17 09:04:41;;;;;;;76.55;33.40;;;;;;;3.44;83.22;101710.59;4981642;28;20512;-64
2022/01/17 09:07:11;;;;;;;77.70;31.92;;;;;;;3.43;83.50;101713.94;4997899;28;20064;-64
2022/01/17 09:09:38;;;;;;;73.32;33.97;;;;;;;3.44;83.37;101723.41;4997884;28;20034;-63
2022/01/17 09:12:07;;;;;;;72.93;31.98;;;;;;;3.43;83.91;101728.44;4997773;28;20037;-62
2022/01/17 09:14:33;;;;;;;74.43;32.78;;;;;;;3.44;83.53;101735.34;4981475;28;20034;-63
2022/01/17 09:16:59;;;;;;;85.22;34.42;;;;;;;3.46;83.44;101739.81;4998019;28;20034;-63
2022/01/17 09:19:25;;;;;;;76.97;33.95;;;;;;;3.46;83.60;101746.63;4998187;28;20045;-62
2022/01/17 09:21:51;;;;;;;75.85;34.22;;;;;;;3.45;83.17;101761.09;4981250;28;20095;-62
2022/01/17 09:24:16;;;;;;;75.43;34.38;;;;;;;3.46;83.10;101769.69;4997553;28;20041;-63
2022/01/17 09:26:42;;;;;;;77.30;32.55;;;;;;;3.46;83.41;101769.69;5015465;28;20096;-63
2022/01/17 09:29:07;;;;;;;80.65;34.83;;;;;;;3.47;83.10;101766.34;4997284;28;20398;-63
2022/01/17 09:31:33;;;;;;;73.38;31.88;;;;;;;3.47;83.03;101759.53;5014642;28;20029;-63
2022/01/17 09:33:58;;;;;;;76.93;33.78;;;;;;;3.48;83.03;101755.31;5015326;28;20077;-63
2022/01/17 09:36:25;;;;;;;68.07;32.95;;;;;;;3.47;83.07;101743.28;4997171;28;20038;-63
2022/01/17 09:38:52;;;;;;;72.50;33.00;;;;;;;3.48;83.39;101739.94;4997756;28;20034;-63
2022/01/17 09:41:18;;;;;;;70.15;33.80;;;;;;;3.47;83.25;101739.03;4996907;28;20034;-63
2022/01/17 09:43:43;;;;;;;70.53;32.55;;;;;;;3.50;83.75;101740.94;5014818;28;20037;-63
2022/01/17 09:46:09;;;;;;;73.32;36.05;;;;;;;3.50;83.43;101751.19;5014155;28;20045;-63
2022/01/17 09:48:37;;;;;;;79.03;36.25;;;;;;;3.51;83.24;101760.63;5015093;28;20057;-63
2022/01/17 09:51:16;;;;;;;65.63;30.48;;;;;;;3.52;83.59;101772.66;4997048;28;20041;-62
2022/01/17 09:53:42;;;;;;;72.03;33.35;;;;;;;3.52;83.49;101770.09;4981112;28;20038;-63
2022/01/17 09:56:09;;;;;;;69.53;35.13;;;;;;;3.52;83.18;101777.81;4997004;28;20423;-63
2022/01/17 09:58:37;;;;;;;72.30;34.50;;;;;;;3.53;83.45;101771.03;4980519;28;20144;-62
2022/01/17 10:01:04;;;;;;;74.28;33.58;;;;;;;3.54;83.43;101783.06;5014285;28;20426;-62
2022/01/17 10:03:31;;;;;;;72.90;32.22;;;;;;;3.54;83.15;101791.63;5030223;28;20050;-63
2022/01/17 10:05:57;;;;;;;68.57;34.60;;;;;;;3.54;83.43;101783.94;5033117;28;20125;-62
2022/01/17 10:08:22;;;;;;;80.05;34.22;;;;;;;3.56;83.49;101782.38;5034139;28;20116;-62
2022/01/17 10:11:04;;;;;;;74.55;34.03;;;;;;;3.55;83.50;101779.72;5034281;28;20393;-62
2022/01/17 10:13:44;;;;;;;70.40;34.22;;;;;;;3.57;83.32;101752.53;5016180;28;20124;-62
2022/01/17 10:16:13;;;;;;;70.63;31.42;;;;;;;3.57;83.65;101765.34;5034256;28;20080;-63
2022/01/17 10:19:04;;;;;;;70.22;35.35;;;;;;;3.58;83.62;101780.81;5032586;28;20033;-64
2022/01/17 10:21:34;;;;;;;67.85;31.95;;;;;;;3.60;83.73;101756.19;5034205;28;20061;-64
2022/01/17 10:37:22;;;;;;;60.80;30.52;;;;;;;3.63;83.47;101774.38;5033444;28;20041;-63
2022/01/17 10:39:51;;;;;;;58.03;31.50;;;;;;;3.64;83.96;101783.84;5015943;28;20069;-63
2022/01/17 10:42:42;;;;;;;51.90;27.27;;;;;;;3.66;82.67;101782.25;5032444;28;20045;-62
2022/01/17 10:45:08;;;;;;;49.55;27.13;;;;;;;3.66;83.29;101787.38;5033817;28;20124;-63
2022/01/17 10:47:36;;;;;;;59.92;29.13;;;;;;;3.68;83.02;101781.47;5033461;28;20117;-63
2022/01/17 10:50:10;;;;;;;54.72;29.00;;;;;;;3.69;83.12;101785.81;5015884;28;20029;-63
2022/01/17 10:52:45;;;;;;;52.35;27.83;;;;;;;3.70;82.89;101785.94;5016144;28;20389;-63
2022/01/17 10:55:12;;;;;;;;;;;;;;;3.69;83.76;101791.84;5033571;28;20026;-63
2022/01/17 10:57:41;;;;;;;54.45;27.27;;;;;;;3.71;83.63;101807.34;5032437;28;19917;-64
2022/01/17 11:00:10;;;;;;;53.53;27.13;;;;;;;3.72;83.24;101806.56;5032535;28;20504;-63
2022/01/17 11:02:37;;;;;;;50.28;27.83;;;;;;;3.71;83.30;101817.59;5015681;28;20049;-63
2022/01/17 11:05:06;;;;;;;50.42;26.73;;;;;;;3.71;83.25;101813.38;5015465;28;20034;-64
2022/01/17 11:07:38;;;;;;;52.45;28.42;;;;;;;3.71;83.09;101823.63;5033003;28;20163;-63
2022/01/17 11:10:07;;;;;;;51.17;28.05;;;;;;;3.71;82.93;101815.03;5032493;28;20042;-63
2022/01/17 11:12:34;;;;;;;48.05;28.73;;;;;;;3.72;83.26;101819.38;5033066;28;20445;-63
2022/01/17 11:14:59;;;;;;;49.08;27.95;;;;;;;3.73;83.32;101816.03;5015677;28;20135;-63
2022/01/17 11:17:38;;;;;;;52.58;27.92;;;;;;;3.72;83.79;101814.25;5031930;28;20068;-63
2022/01/17 11:20:08;;;;;;;54.78;26.92;;;;;;;3.73;83.17;101795.53;5032737;28;20051;-63
2022/01/17 11:22:39;;;;;;;50.47;27.10;;;;;;;3.74;83.49;101787.06;5033213;28;20049;-64
2022/01/17 11:25:16;;;;;;;43.38;25.52;;;;;;;3.72;83.53;101784.38;5032973;28;20041;-64
2022/01/17 11:27:42;;;;;;;47.00;25.17;;;;;;;3.74;83.25;101781.91;5019161;28;20034;-63
2022/01/17 11:30:08;;;;;;;50.92;27.45;;;;;;;3.75;83.47;101779.44;5019276;28;20037;-64
2022/01/17 11:32:34;;;;;;;43.53;25.70;;;;;;;3.74;83.50;101777.66;5019222;28;20485;-64
2022/01/17 11:35:02;;;;;;;47.60;27.85;;;;;;;3.75;83.45;101782.03;5035439;28;20033;-64
2022/01/17 11:37:32;;;;;;;51.78;26.88;;;;;;;3.75;83.59;101778.56;5036553;28;20075;-64
2022/01/17 11:39:59;;;;;;;47.13;26.27;;;;;;;3.75;83.23;101768.31;5018900;28;20041;-64
2022/01/17 11:42:33;;;;;;;47.25;26.60;;;;;;;3.75;83.04;101776.88;5035670;28;20037;-64
2022/01/17 11:44:59;;;;;;;42.70;25.90;;;;;;;3.76;83.25;101785.50;5036528;28;20111;-63
2022/01/17 11:47:54;;;;;;;52.30;27.33;;;;;;;3.76;83.44;101793.19;5018905;28;20043;-63
2022/01/17 11:50:29;;;;;;;49.58;26.48;;;;;;;3.75;83.96;101799.97;5037146;28;20041;-64